sensor_id;sensor_type;location;lat;lon;timestamp;P1;durP1;ratioP1;P2;durP2;ratioP2
42742;SDS011;28397;44.552;-0.848;2023-06-14T00:01:02;17.52;;;8.40;;
42742;SDS011;28397;44.552;-0.848;2023-06-14T00:03:28;16.73;;;8.68;;
42742;SDS011;28397;44.552;-0.848;2023-06-14T00:05:54;15.38;;;7.30;;
42742;SDS011;28397;44.552;-0.848;2023-06-14T00:08:19;14.50;;;8.05;;
42742;SDS011;28397;44.552;-0.848;2023-06-14T00:10:47;13.90;;;7.80;;
42742;SDS011;28397;44.552;-0.848;2023-06-14T00:13:13;15.93;;;8.02;;
42742;SDS011;28397;44.552;-0.848;2023-06-14T00:15:39;15.52;;;7.97;;
42742;SDS011;28397;44.552;-0.848;2023-06-14T00:18:05;15.25;;;8.40;;
42742;SDS011;28397;44.552;-0.848;2023-06-14T00:20:32;16.83;;;8.27;;
42742;SDS011;28397;44.552;-0.848;2023-06-14T00:22:58;15.85;;;8.20;;
42742;SDS011;28397;44.552;-0.848;2023-06-14T00:25:25;14.57;;;7.93;;
42742;SDS011;28397;44.552;-0.848;2023-06-14T00:27:51;18.35;;;8.57;;
42742;SDS011;28397;44.552;-0.848;2023-06-14T00:30:17;18.88;;;8.95;;
42742;SDS011;28397;44.552;-0.848;2023-06-14T00:32:43;16.45;;;7.85;;
42742;SDS011;28397;44.552;-0.848;2023-06-14T00:35:10;15.07;;;8.25;;
42742;SDS011;28397;44.552;-0.848;2023-06-14T00:37:36;16.92;;;8.50;;
42742;SDS011;28397;44.552;-0.848;2023-06-14T00:40:02;18.77;;;8.68;;
42742;SDS011;28397;44.552;-0.848;2023-06-14T00:42:29;16.70;;;8.05;;
42742;SDS011;28397;44.552;-0.848;2023-06-14T00:44:55;18.92;;;8.63;;
42742;SDS011;28397;44.552;-0.848;2023-06-14T00:47:21;16.83;;;8.00;;
42742;SDS011;28397;44.552;-0.848;2023-06-14T00:49:47;17.02;;;7.80;;
42742;SDS011;28397;44.552;-0.848;2023-06-14T00:52:15;17.10;;;7.35;;
42742;SDS011;28397;44.552;-0.848;2023-06-14T00:54:42;19.42;;;7.00;;
42742;SDS011;28397;44.552;-0.848;2023-06-14T00:57:12;16.55;;;8.07;;
42742;SDS011;28397;44.552;-0.848;2023-06-14T00:59:40;16.23;;;6.80;;
42742;SDS011;28397;44.552;-0.848;2023-06-14T01:02:07;19.58;;;7.82;;
42742;SDS011;28397;44.552;-0.848;2023-06-14T01:04:33;14.90;;;7.28;;
42742;SDS011;28397;44.552;-0.848;2023-06-14T01:07:02;17.15;;;7.60;;
42742;SDS011;28397;44.552;-0.848;2023-06-14T01:15:03;15.68;;;7.47;;
42742;SDS011;28397;44.552;-0.848;2023-06-14T01:17:30;15.15;;;7.20;;
42742;SDS011;28397;44.552;-0.848;2023-06-14T01:19:57;18.25;;;7.20;;
42742;SDS011;28397;44.552;-0.848;2023-06-14T01:22:28;17.67;;;7.53;;
42742;SDS011;28397;44.552;-0.848;2023-06-14T01:24:54;17.92;;;7.18;;
42742;SDS011;28397;44.552;-0.848;2023-06-14T01:27:23;15.18;;;6.50;;
42742;SDS011;28397;44.552;-0.848;2023-06-14T01:29:53;18.75;;;7.60;;
42742;SDS011;28397;44.552;-0.848;2023-06-14T01:32:22;14.60;;;6.88;;
42742;SDS011;28397;44.552;-0.848;2023-06-14T01:34:51;15.50;;;6.50;;
42742;SDS011;28397;44.552;-0.848;2023-06-14T01:37:17;14.80;;;6.88;;
42742;SDS011;28397;44.552;-0.848;2023-06-14T01:39:44;17.80;;;7.32;;
42742;SDS011;28397;44.552;-0.848;2023-06-14T01:42:10;15.15;;;7.07;;
42742;SDS011;28397;44.552;-0.848;2023-06-14T01:44:37;14.82;;;6.40;;
42742;SDS011;28397;44.552;-0.848;2023-06-14T01:47:04;20.17;;;7.22;;
42742;SDS011;28397;44.552;-0.848;2023-06-14T01:49:33;18.88;;;7.13;;
42742;SDS011;28397;44.552;-0.848;2023-06-14T01:52:03;16.77;;;7.28;;
42742;SDS011;28397;44.552;-0.848;2023-06-14T01:54:29;16.63;;;7.25;;
42742;SDS011;28397;44.552;-0.848;2023-06-14T01:56:55;18.05;;;6.72;;
42742;SDS011;28397;44.552;-0.848;2023-06-14T01:59:21;15.13;;;7.22;;
42742;SDS011;28397;44.552;-0.848;2023-06-14T02:01:47;18.00;;;6.70;;
42742;SDS011;28397;44.552;-0.848;2023-06-14T02:04:13;16.55;;;7.43;;
42742;SDS011;28397;44.552;-0.848;2023-06-14T02:06:38;15.23;;;7.07;;
42742;SDS011;28397;44.552;-0.848;2023-06-14T02:09:04;14.75;;;6.82;;
42742;SDS011;28397;44.552;-0.848;2023-06-14T02:11:30;18.95;;;6.75;;
42742;SDS011;28397;44.552;-0.848;2023-06-14T02:13:55;15.73;;;6.72;;
42742;SDS011;28397;44.552;-0.848;2023-06-14T02:16:21;17.52;;;6.80;;
42742;SDS011;28397;44.552;-0.848;2023-06-14T02:18:47;17.55;;;7.03;;
42742;SDS011;28397;44.552;-0.848;2023-06-14T02:21:13;14.70;;;6.35;;
42742;SDS011;28397;44.552;-0.848;2023-06-14T02:23:39;14.63;;;6.70;;
42742;SDS011;28397;44.552;-0.848;2023-06-14T02:26:05;17.08;;;6.65;;
42742;SDS011;28397;44.552;-0.848;2023-06-14T02:28:31;19.98;;;7.80;;
42742;SDS011;28397;44.552;-0.848;2023-06-14T02:30:57;20.48;;;7.20;;
42742;SDS011;28397;44.552;-0.848;2023-06-14T02:33:22;18.58;;;6.88;;
42742;SDS011;28397;44.552;-0.848;2023-06-14T02:35:48;16.15;;;6.80;;
42742;SDS011;28397;44.552;-0.848;2023-06-14T02:38:13;18.25;;;8.07;;
42742;SDS011;28397;44.552;-0.848;2023-06-14T02:40:39;15.38;;;7.40;;
42742;SDS011;28397;44.552;-0.848;2023-06-14T02:43:07;16.38;;;7.35;;
42742;SDS011;28397;44.552;-0.848;2023-06-14T02:45:33;17.60;;;7.32;;
42742;SDS011;28397;44.552;-0.848;2023-06-14T02:47:59;15.73;;;7.18;;
42742;SDS011;28397;44.552;-0.848;2023-06-14T02:50:25;14.07;;;6.97;;
42742;SDS011;28397;44.552;-0.848;2023-06-14T02:52:51;19.35;;;7.93;;
42742;SDS011;28397;44.552;-0.848;2023-06-14T02:55:17;18.33;;;8.20;;
42742;SDS011;28397;44.552;-0.848;2023-06-14T02:57:43;15.65;;;7.72;;
42742;SDS011;28397;44.552;-0.848;2023-06-14T03:00:09;18.17;;;7.93;;
42742;SDS011;28397;44.552;-0.848;2023-06-14T03:02:38;20.45;;;8.40;;
42742;SDS011;28397;44.552;-0.848;2023-06-14T03:05:03;19.75;;;9.20;;
42742;SDS011;28397;44.552;-0.848;2023-06-14T03:07:31;17.42;;;8.02;;
42742;SDS011;28397;44.552;-0.848;2023-06-14T03:09:57;18.02;;;8.50;;
42742;SDS011;28397;44.552;-0.848;2023-06-14T03:12:23;18.88;;;8.05;;
42742;SDS011;28397;44.552;-0.848;2023-06-14T03:14:49;22.83;;;8.57;;
42742;SDS011;28397;44.552;-0.848;2023-06-14T03:17:15;22.40;;;8.57;;
42742;SDS011;28397;44.552;-0.848;2023-06-14T03:19:42;18.75;;;8.82;;
42742;SDS011;28397;44.552;-0.848;2023-06-14T03:22:08;21.05;;;8.50;;
42742;SDS011;28397;44.552;-0.848;2023-06-14T03:24:36;18.48;;;8.20;;
42742;SDS011;28397;44.552;-0.848;2023-06-14T03:27:02;18.02;;;8.60;;
42742;SDS011;28397;44.552;-0.848;2023-06-14T03:29:28;18.80;;;8.30;;
42742;SDS011;28397;44.552;-0.848;2023-06-14T03:31:58;18.95;;;8.93;;
42742;SDS011;28397;44.552;-0.848;2023-06-14T03:34:25;19.30;;;8.90;;
42742;SDS011;28397;44.552;-0.848;2023-06-14T03:36:51;17.92;;;8.95;;
42742;SDS011;28397;44.552;-0.848;2023-06-14T03:39:17;19.25;;;8.85;;
42742;SDS011;28397;44.552;-0.848;2023-06-14T03:41:43;21.88;;;9.80;;
42742;SDS011;28397;44.552;-0.848;2023-06-14T03:44:08;21.77;;;9.35;;
42742;SDS011;28397;44.552;-0.848;2023-06-14T03:46:34;20.10;;;9.07;;
42742;SDS011;28397;44.552;-0.848;2023-06-14T03:48:59;20.75;;;9.63;;
42742;SDS011;28397;44.552;-0.848;2023-06-14T03:51:25;23.08;;;9.82;;
42742;SDS011;28397;44.552;-0.848;2023-06-14T03:53:51;20.73;;;10.02;;
42742;SDS011;28397;44.552;-0.848;2023-06-14T03:56:17;22.40;;;9.70;;
42742;SDS011;28397;44.552;-0.848;2023-06-14T03:58:42;19.55;;;9.43;;
42742;SDS011;28397;44.552;-0.848;2023-06-14T04:01:08;19.38;;;9.98;;
42742;SDS011;28397;44.552;-0.848;2023-06-14T04:03:33;23.17;;;10.27;;
42742;SDS011;28397;44.552;-0.848;2023-06-14T04:05:59;21.13;;;10.20;;
42742;SDS011;28397;44.552;-0.848;2023-06-14T04:08:25;23.33;;;10.48;;
42742;SDS011;28397;44.552;-0.848;2023-06-14T04:10:51;23.27;;;10.55;;
42742;SDS011;28397;44.552;-0.848;2023-06-14T04:13:17;24.40;;;10.30;;
42742;SDS011;28397;44.552;-0.848;2023-06-14T04:15:42;26.90;;;10.77;;
42742;SDS011;28397;44.552;-0.848;2023-06-14T04:18:10;26.30;;;11.38;;
42742;SDS011;28397;44.552;-0.848;2023-06-14T04:20:37;28.42;;;11.77;;
42742;SDS011;28397;44.552;-0.848;2023-06-14T04:23:15;21.05;;;11.18;;
42742;SDS011;28397;44.552;-0.848;2023-06-14T04:25:42;28.50;;;12.35;;
42742;SDS011;28397;44.552;-0.848;2023-06-14T04:28:10;22.10;;;11.00;;
42742;SDS011;28397;44.552;-0.848;2023-06-14T04:30:37;27.65;;;12.85;;
42742;SDS011;28397;44.552;-0.848;2023-06-14T04:33:04;25.27;;;12.10;;
42742;SDS011;28397;44.552;-0.848;2023-06-14T04:35:30;26.73;;;11.77;;
42742;SDS011;28397;44.552;-0.848;2023-06-14T04:37:57;27.00;;;12.52;;
42742;SDS011;28397;44.552;-0.848;2023-06-14T04:40:24;24.33;;;11.88;;
42742;SDS011;28397;44.552;-0.848;2023-06-14T04:42:49;30.17;;;12.07;;
42742;SDS011;28397;44.552;-0.848;2023-06-14T04:45:16;24.42;;;12.23;;
42742;SDS011;28397;44.552;-0.848;2023-06-14T04:47:42;26.60;;;12.07;;
42742;SDS011;28397;44.552;-0.848;2023-06-14T04:50:09;28.42;;;12.82;;
42742;SDS011;28397;44.552;-0.848;2023-06-14T04:52:36;28.38;;;13.05;;
42742;SDS011;28397;44.552;-0.848;2023-06-14T04:55:02;27.95;;;12.77;;
42742;SDS011;28397;44.552;-0.848;2023-06-14T04:57:28;26.52;;;12.63;;
42742;SDS011;28397;44.552;-0.848;2023-06-14T04:59:54;27.77;;;13.20;;
42742;SDS011;28397;44.552;-0.848;2023-06-14T05:02:23;29.73;;;14.02;;
42742;SDS011;28397;44.552;-0.848;2023-06-14T05:04:50;25.42;;;14.23;;
42742;SDS011;28397;44.552;-0.848;2023-06-14T05:07:16;28.65;;;13.85;;
42742;SDS011;28397;44.552;-0.848;2023-06-14T05:09:41;27.67;;;14.10;;
42742;SDS011;28397;44.552;-0.848;2023-06-14T05:12:07;31.35;;;14.82;;
42742;SDS011;28397;44.552;-0.848;2023-06-14T05:14:33;25.13;;;14.00;;
42742;SDS011;28397;44.552;-0.848;2023-06-14T05:17:00;28.25;;;14.30;;
42742;SDS011;28397;44.552;-0.848;2023-06-14T05:19:25;25.30;;;13.95;;
42742;SDS011;28397;44.552;-0.848;2023-06-14T05:21:51;26.85;;;13.50;;
42742;SDS011;28397;44.552;-0.848;2023-06-14T05:24:18;28.00;;;13.90;;
42742;SDS011;28397;44.552;-0.848;2023-06-14T05:26:44;27.77;;;13.68;;
42742;SDS011;28397;44.552;-0.848;2023-06-14T05:29:10;27.98;;;14.82;;
42742;SDS011;28397;44.552;-0.848;2023-06-14T05:31:36;25.02;;;13.80;;
42742;SDS011;28397;44.552;-0.848;2023-06-14T05:34:02;28.23;;;14.02;;
42742;SDS011;28397;44.552;-0.848;2023-06-14T05:36:28;25.02;;;13.95;;
42742;SDS011;28397;44.552;-0.848;2023-06-14T05:38:54;28.55;;;14.38;;
42742;SDS011;28397;44.552;-0.848;2023-06-14T05:41:28;23.98;;;13.25;;
42742;SDS011;28397;44.552;-0.848;2023-06-14T05:43:54;29.55;;;14.02;;
42742;SDS011;28397;44.552;-0.848;2023-06-14T05:46:21;25.42;;;13.25;;
42742;SDS011;28397;44.552;-0.848;2023-06-14T05:48:49;27.48;;;13.50;;
42742;SDS011;28397;44.552;-0.848;2023-06-14T05:51:16;27.63;;;13.45;;
42742;SDS011;28397;44.552;-0.848;2023-06-14T05:53:47;21.83;;;13.27;;
42742;SDS011;28397;44.552;-0.848;2023-06-14T05:56:13;24.80;;;13.07;;
42742;SDS011;28397;44.552;-0.848;2023-06-14T05:58:39;29.10;;;13.30;;
42742;SDS011;28397;44.552;-0.848;2023-06-14T06:01:05;25.05;;;12.85;;
42742;SDS011;28397;44.552;-0.848;2023-06-14T06:03:31;28.63;;;13.35;;
42742;SDS011;28397;44.552;-0.848;2023-06-14T06:05:57;25.40;;;12.90;;
42742;SDS011;28397;44.552;-0.848;2023-06-14T06:08:23;27.30;;;12.88;;
42742;SDS011;28397;44.552;-0.848;2023-06-14T06:10:49;26.30;;;13.57;;
42742;SDS011;28397;44.552;-0.848;2023-06-14T06:13:15;24.27;;;13.48;;
42742;SDS011;28397;44.552;-0.848;2023-06-14T06:15:41;20.20;;;12.85;;
42742;SDS011;28397;44.552;-0.848;2023-06-14T06:18:06;24.88;;;13.55;;
42742;SDS011;28397;44.552;-0.848;2023-06-14T06:20:32;23.35;;;12.77;;
42742;SDS011;28397;44.552;-0.848;2023-06-14T06:22:58;28.50;;;13.32;;
42742;SDS011;28397;44.552;-0.848;2023-06-14T06:25:27;27.45;;;13.15;;
42742;SDS011;28397;44.552;-0.848;2023-06-14T06:27:53;31.02;;;13.75;;
42742;SDS011;28397;44.552;-0.848;2023-06-14T06:30:21;30.10;;;14.10;;
42742;SDS011;28397;44.552;-0.848;2023-06-14T06:32:47;26.58;;;13.70;;
42742;SDS011;28397;44.552;-0.848;2023-06-14T06:35:12;25.13;;;13.77;;
42742;SDS011;28397;44.552;-0.848;2023-06-14T06:37:39;24.80;;;13.63;;
42742;SDS011;28397;44.552;-0.848;2023-06-14T06:40:06;21.48;;;13.95;;
42742;SDS011;28397;44.552;-0.848;2023-06-14T06:42:33;25.85;;;13.52;;
42742;SDS011;28397;44.552;-0.848;2023-06-14T06:44:58;25.13;;;13.40;;
42742;SDS011;28397;44.552;-0.848;2023-06-14T06:47:24;24.15;;;13.93;;
42742;SDS011;28397;44.552;-0.848;2023-06-14T06:49:50;21.73;;;14.18;;
42742;SDS011;28397;44.552;-0.848;2023-06-14T06:52:16;23.67;;;12.90;;
42742;SDS011;28397;44.552;-0.848;2023-06-14T06:54:41;24.35;;;12.98;;
42742;SDS011;28397;44.552;-0.848;2023-06-14T06:57:07;23.45;;;13.05;;
42742;SDS011;28397;44.552;-0.848;2023-06-14T06:59:33;24.20;;;11.95;;
42742;SDS011;28397;44.552;-0.848;2023-06-14T07:01:59;20.17;;;11.95;;
42742;SDS011;28397;44.552;-0.848;2023-06-14T07:04:25;22.63;;;12.65;;
42742;SDS011;28397;44.552;-0.848;2023-06-14T07:06:51;26.75;;;12.77;;
42742;SDS011;28397;44.552;-0.848;2023-06-14T07:09:17;23.80;;;12.13;;
42742;SDS011;28397;44.552;-0.848;2023-06-14T07:11:44;24.05;;;12.15;;
42742;SDS011;28397;44.552;-0.848;2023-06-14T07:14:11;25.88;;;12.32;;
42742;SDS011;28397;44.552;-0.848;2023-06-14T07:16:37;20.88;;;11.90;;
42742;SDS011;28397;44.552;-0.848;2023-06-14T07:19:03;21.17;;;12.43;;
42742;SDS011;28397;44.552;-0.848;2023-06-14T07:21:29;20.92;;;12.77;;
42742;SDS011;28397;44.552;-0.848;2023-06-14T07:23:55;24.90;;;12.38;;
42742;SDS011;28397;44.552;-0.848;2023-06-14T07:26:21;23.23;;;12.57;;
42742;SDS011;28397;44.552;-0.848;2023-06-14T07:28:47;19.27;;;12.10;;
42742;SDS011;28397;44.552;-0.848;2023-06-14T07:31:14;21.75;;;12.88;;
42742;SDS011;28397;44.552;-0.848;2023-06-14T07:33:40;22.15;;;11.90;;
42742;SDS011;28397;44.552;-0.848;2023-06-14T07:36:06;25.80;;;13.20;;
42742;SDS011;28397;44.552;-0.848;2023-06-14T07:38:32;20.23;;;12.32;;
42742;SDS011;28397;44.552;-0.848;2023-06-14T07:40:58;21.17;;;12.07;;
42742;SDS011;28397;44.552;-0.848;2023-06-14T07:43:24;18.95;;;12.00;;
42742;SDS011;28397;44.552;-0.848;2023-06-14T07:45:50;20.40;;;12.95;;
42742;SDS011;28397;44.552;-0.848;2023-06-14T07:48:16;19.02;;;12.65;;
42742;SDS011;28397;44.552;-0.848;2023-06-14T07:50:42;27.92;;;13.40;;
42742;SDS011;28397;44.552;-0.848;2023-06-14T07:53:08;32.10;;;12.45;;
42742;SDS011;28397;44.552;-0.848;2023-06-14T07:55:33;48.45;;;14.18;;
42742;SDS011;28397;44.552;-0.848;2023-06-14T07:58:02;20.88;;;12.20;;
42742;SDS011;28397;44.552;-0.848;2023-06-14T08:00:28;17.80;;;11.93;;
42742;SDS011;28397;44.552;-0.848;2023-06-14T08:02:54;22.60;;;12.70;;
42742;SDS011;28397;44.552;-0.848;2023-06-14T08:05:24;20.17;;;12.13;;
42742;SDS011;28397;44.552;-0.848;2023-06-14T08:07:51;18.85;;;12.15;;
42742;SDS011;28397;44.552;-0.848;2023-06-14T08:10:17;22.83;;;12.27;;
42742;SDS011;28397;44.552;-0.848;2023-06-14T08:12:42;21.50;;;13.27;;
42742;SDS011;28397;44.552;-0.848;2023-06-14T08:15:08;20.13;;;12.65;;
42742;SDS011;28397;44.552;-0.848;2023-06-14T08:17:34;18.95;;;13.23;;
42742;SDS011;28397;44.552;-0.848;2023-06-14T08:20:00;20.65;;;12.88;;
42742;SDS011;28397;44.552;-0.848;2023-06-14T08:22:26;18.05;;;12.63;;
42742;SDS011;28397;44.552;-0.848;2023-06-14T08:24:53;20.40;;;13.15;;
42742;SDS011;28397;44.552;-0.848;2023-06-14T08:27:19;16.55;;;11.90;;
42742;SDS011;28397;44.552;-0.848;2023-06-14T08:29:45;16.90;;;11.80;;
42742;SDS011;28397;44.552;-0.848;2023-06-14T08:32:11;14.95;;;11.40;;
42742;SDS011;28397;44.552;-0.848;2023-06-14T08:34:37;18.00;;;12.20;;
42742;SDS011;28397;44.552;-0.848;2023-06-14T08:37:03;17.15;;;11.57;;
42742;SDS011;28397;44.552;-0.848;2023-06-14T08:39:30;17.65;;;11.93;;
42742;SDS011;28397;44.552;-0.848;2023-06-14T08:41:56;17.40;;;12.00;;
42742;SDS011;28397;44.552;-0.848;2023-06-14T08:44:23;16.70;;;11.70;;
42742;SDS011;28397;44.552;-0.848;2023-06-14T08:46:49;15.98;;;12.30;;
42742;SDS011;28397;44.552;-0.848;2023-06-14T08:49:17;17.30;;;13.00;;
42742;SDS011;28397;44.552;-0.848;2023-06-14T08:51:43;20.00;;;12.95;;
42742;SDS011;28397;44.552;-0.848;2023-06-14T08:54:09;15.60;;;12.43;;
42742;SDS011;28397;44.552;-0.848;2023-06-14T08:56:37;18.17;;;12.88;;
42742;SDS011;28397;44.552;-0.848;2023-06-14T08:59:03;16.33;;;13.27;;
42742;SDS011;28397;44.552;-0.848;2023-06-14T09:01:34;17.13;;;12.82;;
42742;SDS011;28397;44.552;-0.848;2023-06-14T09:04:01;16.48;;;12.50;;
42742;SDS011;28397;44.552;-0.848;2023-06-14T09:06:30;17.48;;;12.65;;
42742;SDS011;28397;44.552;-0.848;2023-06-14T09:08:56;14.73;;;11.82;;
42742;SDS011;28397;44.552;-0.848;2023-06-14T09:11:22;18.70;;;12.50;;
42742;SDS011;28397;44.552;-0.848;2023-06-14T09:13:48;16.92;;;12.98;;
42742;SDS011;28397;44.552;-0.848;2023-06-14T09:16:15;15.75;;;12.25;;
42742;SDS011;28397;44.552;-0.848;2023-06-14T09:18:44;15.60;;;13.43;;
42742;SDS011;28397;44.552;-0.848;2023-06-14T09:23:42;16.20;;;12.48;;
42742;SDS011;28397;44.552;-0.848;2023-06-14T09:26:09;17.73;;;12.80;;
42742;SDS011;28397;44.552;-0.848;2023-06-14T09:28:36;19.63;;;12.45;;
42742;SDS011;28397;44.552;-0.848;2023-06-14T09:31:06;16.25;;;12.00;;
42742;SDS011;28397;44.552;-0.848;2023-06-14T09:33:33;20.90;;;14.38;;
42742;SDS011;28397;44.552;-0.848;2023-06-14T09:35:59;21.75;;;15.75;;
42742;SDS011;28397;44.552;-0.848;2023-06-14T09:38:25;22.45;;;13.93;;
42742;SDS011;28397;44.552;-0.848;2023-06-14T09:40:51;20.83;;;12.80;;
42742;SDS011;28397;44.552;-0.848;2023-06-14T09:43:17;17.23;;;13.05;;
42742;SDS011;28397;44.552;-0.848;2023-06-14T09:45:44;14.55;;;12.30;;
42742;SDS011;28397;44.552;-0.848;2023-06-14T09:48:13;15.43;;;11.68;;
42742;SDS011;28397;44.552;-0.848;2023-06-14T09:50:44;16.00;;;12.55;;
42742;SDS011;28397;44.552;-0.848;2023-06-14T09:53:11;15.82;;;12.48;;
42742;SDS011;28397;44.552;-0.848;2023-06-14T09:55:39;19.42;;;12.95;;
42742;SDS011;28397;44.552;-0.848;2023-06-14T09:58:07;17.38;;;12.13;;
42742;SDS011;28397;44.552;-0.848;2023-06-14T10:00:35;15.98;;;12.63;;
42742;SDS011;28397;44.552;-0.848;2023-06-14T10:03:25;15.80;;;11.88;;
42742;SDS011;28397;44.552;-0.848;2023-06-14T10:05:53;17.52;;;12.05;;
42742;SDS011;28397;44.552;-0.848;2023-06-14T10:08:27;16.27;;;12.10;;
42742;SDS011;28397;44.552;-0.848;2023-06-14T10:10:56;15.52;;;12.25;;
42742;SDS011;28397;44.552;-0.848;2023-06-14T10:13:21;13.48;;;11.15;;
42742;SDS011;28397;44.552;-0.848;2023-06-14T10:18:33;16.08;;;11.68;;
42742;SDS011;28397;44.552;-0.848;2023-06-14T10:21:21;15.93;;;12.10;;
42742;SDS011;28397;44.552;-0.848;2023-06-14T10:23:56;15.98;;;11.70;;
42742;SDS011;28397;44.552;-0.848;2023-06-14T10:26:28;14.02;;;11.68;;
42742;SDS011;28397;44.552;-0.848;2023-06-14T10:31:47;14.90;;;11.60;;
42742;SDS011;28397;44.552;-0.848;2023-06-14T10:34:21;16.05;;;11.55;;
42742;SDS011;28397;44.552;-0.848;2023-06-14T10:36:59;16.88;;;11.70;;
42742;SDS011;28397;44.552;-0.848;2023-06-14T10:39:28;14.05;;;11.75;;
42742;SDS011;28397;44.552;-0.848;2023-06-14T10:41:55;17.77;;;11.88;;
42742;SDS011;28397;44.552;-0.848;2023-06-14T10:46:53;12.50;;;11.20;;
42742;SDS011;28397;44.552;-0.848;2023-06-14T10:49:20;13.57;;;10.73;;
42742;SDS011;28397;44.552;-0.848;2023-06-14T10:52:10;15.00;;;11.27;;
42742;SDS011;28397;44.552;-0.848;2023-06-14T10:57:48;16.23;;;10.95;;
42742;SDS011;28397;44.552;-0.848;2023-06-14T11:00:24;15.32;;;11.10;;
42742;SDS011;28397;44.552;-0.848;2023-06-14T11:05:29;15.20;;;11.85;;
42742;SDS011;28397;44.552;-0.848;2023-06-14T11:10:38;14.02;;;11.35;;
42742;SDS011;28397;44.552;-0.848;2023-06-14T11:13:05;15.75;;;11.52;;
42742;SDS011;28397;44.552;-0.848;2023-06-14T11:15:35;14.70;;;11.20;;
42742;SDS011;28397;44.552;-0.848;2023-06-14T11:18:04;18.35;;;12.48;;
42742;SDS011;28397;44.552;-0.848;2023-06-14T11:20:32;15.88;;;11.40;;
42742;SDS011;28397;44.552;-0.848;2023-06-14T11:22:59;16.92;;;12.63;;
42742;SDS011;28397;44.552;-0.848;2023-06-14T11:25:25;15.48;;;11.68;;
42742;SDS011;28397;44.552;-0.848;2023-06-14T11:27:54;16.25;;;12.15;;
42742;SDS011;28397;44.552;-0.848;2023-06-14T11:30:21;12.85;;;11.38;;
42742;SDS011;28397;44.552;-0.848;2023-06-14T11:32:47;15.95;;;11.68;;
42742;SDS011;28397;44.552;-0.848;2023-06-14T11:35:17;14.63;;;11.88;;
42742;SDS011;28397;44.552;-0.848;2023-06-14T11:37:44;19.25;;;11.95;;
42742;SDS011;28397;44.552;-0.848;2023-06-14T11:40:10;15.98;;;11.85;;
42742;SDS011;28397;44.552;-0.848;2023-06-14T11:42:38;20.08;;;11.27;;
42742;SDS011;28397;44.552;-0.848;2023-06-14T11:45:07;15.25;;;11.50;;
42742;SDS011;28397;44.552;-0.848;2023-06-14T11:47:35;12.70;;;10.98;;
42742;SDS011;28397;44.552;-0.848;2023-06-14T11:50:02;14.68;;;11.02;;
42742;SDS011;28397;44.552;-0.848;2023-06-14T11:52:30;16.58;;;10.73;;
42742;SDS011;28397;44.552;-0.848;2023-06-14T11:54:56;13.40;;;10.80;;
42742;SDS011;28397;44.552;-0.848;2023-06-14T11:57:22;14.63;;;10.75;;
42742;SDS011;28397;44.552;-0.848;2023-06-14T11:59:48;15.35;;;11.15;;
42742;SDS011;28397;44.552;-0.848;2023-06-14T12:02:17;12.38;;;10.75;;
42742;SDS011;28397;44.552;-0.848;2023-06-14T12:04:46;14.45;;;10.82;;
42742;SDS011;28397;44.552;-0.848;2023-06-14T12:07:13;13.18;;;10.80;;
42742;SDS011;28397;44.552;-0.848;2023-06-14T12:10:22;15.27;;;11.35;;
42742;SDS011;28397;44.552;-0.848;2023-06-14T12:12:34;14.98;;;10.75;;
42742;SDS011;28397;44.552;-0.848;2023-06-14T12:15:08;15.93;;;11.23;;
42742;SDS011;28397;44.552;-0.848;2023-06-14T12:17:38;13.93;;;10.95;;
42742;SDS011;28397;44.552;-0.848;2023-06-14T12:20:10;12.90;;;10.60;;
42742;SDS011;28397;44.552;-0.848;2023-06-14T12:23:00;15.13;;;10.25;;
42742;SDS011;28397;44.552;-0.848;2023-06-14T12:25:27;15.55;;;10.27;;
42742;SDS011;28397;44.552;-0.848;2023-06-14T12:28:00;16.45;;;10.38;;
42742;SDS011;28397;44.552;-0.848;2023-06-14T12:30:33;12.45;;;9.75;;
42742;SDS011;28397;44.552;-0.848;2023-06-14T12:33:01;13.25;;;10.25;;
42742;SDS011;28397;44.552;-0.848;2023-06-14T12:35:27;13.43;;;10.60;;
42742;SDS011;28397;44.552;-0.848;2023-06-14T12:37:53;16.63;;;11.13;;
42742;SDS011;28397;44.552;-0.848;2023-06-14T12:40:18;13.48;;;10.10;;
42742;SDS011;28397;44.552;-0.848;2023-06-14T12:42:44;13.93;;;10.27;;
42742;SDS011;28397;44.552;-0.848;2023-06-14T12:45:12;13.00;;;10.07;;
42742;SDS011;28397;44.552;-0.848;2023-06-14T12:47:38;13.88;;;9.63;;
42742;SDS011;28397;44.552;-0.848;2023-06-14T12:50:04;12.77;;;9.50;;
42742;SDS011;28397;44.552;-0.848;2023-06-14T12:52:30;12.98;;;9.38;;
42742;SDS011;28397;44.552;-0.848;2023-06-14T12:54:56;11.23;;;9.23;;
42742;SDS011;28397;44.552;-0.848;2023-06-14T12:57:22;15.98;;;9.55;;
42742;SDS011;28397;44.552;-0.848;2023-06-14T12:59:49;13.10;;;8.95;;
42742;SDS011;28397;44.552;-0.848;2023-06-14T13:02:15;13.77;;;9.93;;
42742;SDS011;28397;44.552;-0.848;2023-06-14T13:04:42;12.77;;;9.25;;
42742;SDS011;28397;44.552;-0.848;2023-06-14T13:07:08;13.80;;;10.05;;
42742;SDS011;28397;44.552;-0.848;2023-06-14T13:09:35;13.73;;;9.50;;
42742;SDS011;28397;44.552;-0.848;2023-06-14T13:12:01;20.63;;;10.55;;
42742;SDS011;28397;44.552;-0.848;2023-06-14T13:14:27;14.88;;;9.95;;
42742;SDS011;28397;44.552;-0.848;2023-06-14T13:16:53;18.52;;;10.32;;
42742;SDS011;28397;44.552;-0.848;2023-06-14T13:19:18;14.13;;;10.43;;
42742;SDS011;28397;44.552;-0.848;2023-06-14T13:21:44;16.30;;;10.52;;
42742;SDS011;28397;44.552;-0.848;2023-06-14T13:24:10;16.35;;;10.85;;
42742;SDS011;28397;44.552;-0.848;2023-06-14T13:26:36;42.00;;;13.48;;
42742;SDS011;28397;44.552;-0.848;2023-06-14T13:29:01;17.05;;;10.65;;
42742;SDS011;28397;44.552;-0.848;2023-06-14T13:31:27;15.65;;;11.00;;
42742;SDS011;28397;44.552;-0.848;2023-06-14T13:33:54;18.58;;;11.88;;
42742;SDS011;28397;44.552;-0.848;2023-06-14T13:36:20;16.75;;;10.88;;
42742;SDS011;28397;44.552;-0.848;2023-06-14T13:38:45;14.48;;;11.25;;
42742;SDS011;28397;44.552;-0.848;2023-06-14T13:41:11;18.02;;;11.20;;
42742;SDS011;28397;44.552;-0.848;2023-06-14T13:43:37;17.33;;;12.23;;
42742;SDS011;28397;44.552;-0.848;2023-06-14T13:46:02;16.75;;;11.43;;
42742;SDS011;28397;44.552;-0.848;2023-06-14T13:48:28;18.42;;;11.80;;
42742;SDS011;28397;44.552;-0.848;2023-06-14T13:50:54;16.90;;;11.48;;
42742;SDS011;28397;44.552;-0.848;2023-06-14T13:53:20;16.10;;;11.68;;
42742;SDS011;28397;44.552;-0.848;2023-06-14T13:55:46;18.38;;;11.35;;
42742;SDS011;28397;44.552;-0.848;2023-06-14T13:58:11;16.73;;;10.77;;
42742;SDS011;28397;44.552;-0.848;2023-06-14T14:00:39;16.10;;;11.07;;
42742;SDS011;28397;44.552;-0.848;2023-06-14T14:03:05;15.15;;;10.35;;
42742;SDS011;28397;44.552;-0.848;2023-06-14T14:05:31;14.32;;;11.00;;
42742;SDS011;28397;44.552;-0.848;2023-06-14T14:07:57;14.55;;;10.70;;
42742;SDS011;28397;44.552;-0.848;2023-06-14T14:10:24;16.20;;;10.50;;
42742;SDS011;28397;44.552;-0.848;2023-06-14T14:12:50;20.10;;;10.85;;
42742;SDS011;28397;44.552;-0.848;2023-06-14T14:15:17;17.17;;;11.10;;
42742;SDS011;28397;44.552;-0.848;2023-06-14T14:17:43;13.73;;;9.63;;
42742;SDS011;28397;44.552;-0.848;2023-06-14T14:20:09;16.48;;;10.32;;
42742;SDS011;28397;44.552;-0.848;2023-06-14T14:22:37;13.80;;;9.50;;
42742;SDS011;28397;44.552;-0.848;2023-06-14T14:25:03;17.98;;;10.23;;
42742;SDS011;28397;44.552;-0.848;2023-06-14T14:27:29;12.77;;;9.27;;
42742;SDS011;28397;44.552;-0.848;2023-06-14T14:29:54;12.18;;;8.88;;
42742;SDS011;28397;44.552;-0.848;2023-06-14T14:32:20;12.23;;;8.73;;
42742;SDS011;28397;44.552;-0.848;2023-06-14T14:34:46;14.00;;;9.45;;
42742;SDS011;28397;44.552;-0.848;2023-06-14T14:37:11;13.50;;;8.68;;